首页
METAR-TAF:

METAR-TAF

机场 :

Lonesome Pine Airport

Wise, 弗吉尼亚州, 美国

纬度: 36-59N, 经度: 082-32W, 海拔: 817米

当前天气观测

该预报发布于31分钟前的19:55 UTC
风速8节,风向北转西北
温度 2°C
湿度 93%
气压 1021 hPa
能見度: 16.1公里
多云层高于1300英尺
阴天层高于1900英尺

METAR: KLNP 201955Z AUTO 33008KT 10SM BKN013 OVC019 02/01 A3014 RMK AO2

时间: 15:26 (20:26 UTC)


TAF: 丢失

超过4000个机场的气象观测和天气预报(METAR&TAF报告)。

可查询的气象台以黄色和红色小点在地图上表示。

将鼠标移到小点上方,可查看气象台名称。

然后点击查看天气观测和预报。

如需切换地图:点击带黑十字的绿色按钮放大地图;点击带横线的绿色按钮缩小地图;或者点击绿色箭头查看邻近地区的地图。


METAR-TAF: